createdAt,value
2022-07-31T00:00:17.579Z,18.64
2022-07-31T00:02:17.229Z,18.60
2022-07-31T00:04:14.572Z,18.60
2022-07-31T00:06:12.751Z,18.60
2022-07-31T00:08:11.139Z,18.58
2022-07-31T00:10:09.902Z,18.64
2022-07-31T00:12:08.203Z,18.61
2022-07-31T00:14:06.485Z,18.62
2022-07-31T00:16:05.330Z,18.59
2022-07-31T00:18:05.192Z,18.59
2022-07-31T00:20:03.588Z,18.58
2022-07-31T00:22:02.015Z,18.55
2022-07-31T00:24:00.330Z,18.56
2022-07-31T00:25:59.064Z,18.57
2022-07-31T00:27:57.427Z,18.60
2022-07-31T00:29:55.703Z,18.60
2022-07-31T00:31:54.047Z,18.61
2022-07-31T00:33:53.840Z,18.59
2022-07-31T00:35:52.127Z,18.54
2022-07-31T00:37:52.292Z,18.54
2022-07-31T00:39:54.509Z,18.49
2022-07-31T00:41:54.948Z,18.46
2022-07-31T00:43:53.429Z,18.46
2022-07-31T00:45:58.789Z,18.34
2022-07-31T00:47:57.846Z,18.28
2022-07-31T00:49:57.722Z,18.29
2022-07-31T00:51:56.370Z,18.28
2022-07-31T00:53:54.881Z,18.28
2022-07-31T00:55:53.192Z,18.25
2022-07-31T00:57:51.468Z,18.23
2022-07-31T00:59:49.918Z,18.25
2022-07-31T01:01:48.704Z,18.23
2022-07-31T01:03:46.843Z,18.21
2022-07-31T01:05:46.607Z,18.20
2022-07-31T01:07:44.906Z,18.15
2022-07-31T01:09:44.972Z,18.14
2022-07-31T01:11:49.271Z,18.15
2022-07-31T01:13:53.801Z,18.13
2022-07-31T01:15:53.637Z,18.13
2022-07-31T01:17:53.364Z,18.14
2022-07-31T01:19:53.343Z,18.16
2022-07-31T01:22:00.717Z,18.16
2022-07-31T01:24:19.657Z,18.11
2022-07-31T01:26:47.078Z,18.12
2022-07-31T01:29:01.119Z,18.12
2022-07-31T01:33:34.011Z,18.05
2022-07-31T01:35:40.737Z,18.03
2022-07-31T01:37:45.094Z,17.95
2022-07-31T01:39:47.969Z,17.91
2022-07-31T01:41:49.178Z,17.84
2022-07-31T01:43:54.162Z,17.87
2022-07-31T01:45:56.680Z,17.94
2022-07-31T01:47:58.975Z,17.98
2022-07-31T01:50:04.972Z,17.97
2022-07-31T01:52:06.561Z,17.90
2022-07-31T01:54:06.627Z,17.83
2022-07-31T01:56:08.178Z,17.89
2022-07-31T01:58:10.331Z,17.93
2022-07-31T02:00:33.556Z,17.94
2022-07-31T02:02:32.131Z,17.97
2022-07-31T02:04:30.971Z,17.99
2022-07-31T02:06:29.575Z,17.97
2022-07-31T02:08:29.649Z,18.02
2022-07-31T02:10:29.948Z,18.04
2022-07-31T02:12:31.766Z,18.05
2022-07-31T02:14:33.638Z,18.07
2022-07-31T02:16:34.544Z,18.08
2022-07-31T02:18:43.022Z,18.09
2022-07-31T02:20:48.125Z,18.08
2022-07-31T02:22:46.439Z,18.09
2022-07-31T02:24:44.873Z,17.97
2022-07-31T02:26:43.444Z,17.94
2022-07-31T02:28:44.961Z,17.91
2022-07-31T02:30:45.562Z,17.86
2022-07-31T02:32:47.930Z,17.86
2022-07-31T02:34:47.133Z,17.84
2022-07-31T02:36:47.013Z,17.80
2022-07-31T02:38:46.317Z,17.74
2022-07-31T02:40:45.450Z,17.73
2022-07-31T02:42:44.554Z,17.70
2022-07-31T02:44:42.914Z,17.69
2022-07-31T02:46:42.514Z,17.65
2022-07-31T02:48:43.074Z,17.60
2022-07-31T02:50:44.260Z,17.50
2022-07-31T02:52:43.052Z,17.49
2022-07-31T02:54:43.830Z,17.46
2022-07-31T02:56:43.191Z,17.46
2022-07-31T02:58:43.602Z,17.46
2022-07-31T03:01:02.802Z,17.44
2022-07-31T03:03:03.126Z,17.38
2022-07-31T03:05:03.255Z,17.32
2022-07-31T03:07:01.810Z,17.17
2022-07-31T03:09:00.201Z,17.16
2022-07-31T03:10:58.628Z,16.98
2022-07-31T03:12:58.233Z,16.96
2022-07-31T03:14:58.024Z,17.00
2022-07-31T03:16:58.163Z,16.99
2022-07-31T03:18:56.986Z,16.98
2022-07-31T03:20:58.050Z,17.02
2022-07-31T03:22:56.470Z,16.99
2022-07-31T03:24:56.341Z,16.99
2022-07-31T03:26:56.099Z,17.10
2022-07-31T03:28:55.113Z,17.19
2022-07-31T03:30:56.532Z,17.27
2022-07-31T03:32:58.580Z,17.14
2022-07-31T03:34:57.215Z,16.93
2022-07-31T03:36:57.018Z,17.02
2022-07-31T03:38:55.732Z,17.05
2022-07-31T03:41:04.714Z,17.02
2022-07-31T03:43:04.566Z,17.14
2022-07-31T03:45:05.015Z,17.16
2022-07-31T03:47:03.853Z,17.19
2022-07-31T03:49:02.382Z,17.25
2022-07-31T03:51:01.047Z,17.31
2022-07-31T03:53:03.160Z,17.28
2022-07-31T03:55:01.668Z,17.32
2022-07-31T03:57:02.648Z,17.31
2022-07-31T03:59:01.569Z,17.32
2022-07-31T04:01:03.156Z,17.41
2022-07-31T04:03:08.212Z,17.47
2022-07-31T04:05:21.782Z,17.62
2022-07-31T04:07:20.946Z,17.68
2022-07-31T04:09:22.051Z,17.81
2022-07-31T04:11:20.998Z,17.92
2022-07-31T04:13:19.550Z,17.89
2022-07-31T04:15:18.338Z,18.04
2022-07-31T04:17:17.236Z,18.10
2022-07-31T04:19:15.749Z,18.24
2022-07-31T04:21:14.136Z,18.35
2022-07-31T04:23:13.095Z,18.45
2022-07-31T04:25:36.303Z,18.56
2022-07-31T04:28:01.673Z,18.65
2022-07-31T04:30:00.289Z,18.83
2022-07-31T04:31:58.956Z,18.67
2022-07-31T04:34:04.379Z,18.72
2022-07-31T04:36:02.793Z,18.96
2022-07-31T04:38:01.275Z,19.23
2022-07-31T04:40:03.789Z,19.80
2022-07-31T04:42:03.659Z,20.29
2022-07-31T04:44:03.087Z,20.34
2022-07-31T04:46:17.160Z,20.16
2022-07-31T04:48:16.251Z,19.93
2022-07-31T04:50:15.027Z,19.90
2022-07-31T04:52:26.531Z,19.67
2022-07-31T04:54:28.620Z,19.65
2022-07-31T04:56:36.162Z,19.66
2022-07-31T04:58:35.951Z,19.68
2022-07-31T05:00:34.331Z,19.64
2022-07-31T05:02:32.746Z,19.56
2022-07-31T05:04:30.993Z,19.65
2022-07-31T05:06:37.827Z,19.85
2022-07-31T05:08:36.417Z,20.00
2022-07-31T05:10:52.368Z,20.08
2022-07-31T05:12:50.551Z,20.07
2022-07-31T05:14:50.291Z,20.19
2022-07-31T05:16:48.914Z,20.25
2022-07-31T05:18:49.591Z,20.29
2022-07-31T05:21:06.129Z,20.37
2022-07-31T05:23:10.309Z,20.46
2022-07-31T05:25:23.975Z,20.46
2022-07-31T05:27:22.342Z,20.53
2022-07-31T05:29:20.616Z,20.52
2022-07-31T05:31:20.912Z,20.45
2022-07-31T05:33:20.522Z,20.52
2022-07-31T05:35:18.925Z,20.62
2022-07-31T05:37:17.265Z,20.75
2022-07-31T05:39:18.848Z,20.74
2022-07-31T05:41:35.591Z,20.84
2022-07-31T05:43:54.041Z,20.68
2022-07-31T05:45:56.401Z,21.16
2022-07-31T05:47:56.464Z,21.35
2022-07-31T05:49:54.847Z,21.41
2022-07-31T05:51:54.571Z,21.45
2022-07-31T05:53:52.939Z,21.46
2022-07-31T05:56:10.800Z,21.98
2022-07-31T05:58:16.814Z,21.91
2022-07-31T06:00:17.564Z,21.84
2022-07-31T06:02:16.489Z,21.80
2022-07-31T06:04:45.603Z,21.96
2022-07-31T06:06:43.918Z,21.92
2022-07-31T06:08:43.087Z,21.78
2022-07-31T06:10:41.845Z,22.21
2022-07-31T06:12:40.206Z,22.82
2022-07-31T06:14:38.656Z,23.29
2022-07-31T06:16:50.292Z,23.17
2022-07-31T06:18:49.017Z,23.31
2022-07-31T06:20:50.467Z,23.36
2022-07-31T06:22:49.093Z,23.12
2022-07-31T06:24:47.571Z,22.79
2022-07-31T06:26:45.978Z,23.10
2022-07-31T06:28:48.669Z,23.29
2022-07-31T06:30:47.699Z,23.69
2022-07-31T06:32:46.097Z,23.89
2022-07-31T06:34:45.024Z,23.96
2022-07-31T06:36:45.027Z,24.00
2022-07-31T06:38:46.718Z,23.56
2022-07-31T06:41:05.273Z,23.31
2022-07-31T06:43:14.729Z,23.00
2022-07-31T06:45:50.905Z,22.87
2022-07-31T06:48:28.492Z,22.77
2022-07-31T06:50:34.590Z,22.65
2022-07-31T06:52:54.828Z,22.77
2022-07-31T06:54:54.968Z,22.93
2022-07-31T06:56:53.246Z,23.19
2022-07-31T06:58:51.875Z,23.64
2022-07-31T07:00:50.350Z,24.32
2022-07-31T07:02:49.295Z,24.11
2022-07-31T07:05:04.424Z,24.45
2022-07-31T07:07:06.445Z,25.13
2022-07-31T07:09:06.238Z,24.81
2022-07-31T07:11:04.756Z,24.91
2022-07-31T07:13:07.022Z,24.51
2022-07-31T07:15:09.005Z,24.79
2022-07-31T07:17:07.188Z,25.01
2022-07-31T07:19:05.768Z,25.06
2022-07-31T07:21:04.812Z,25.26
2022-07-31T07:23:06.583Z,25.39
2022-07-31T07:25:15.129Z,25.53
2022-07-31T07:27:13.708Z,25.50
2022-07-31T07:29:12.103Z,25.67
2022-07-31T07:31:10.391Z,25.68
2022-07-31T07:33:08.827Z,25.68
2022-07-31T07:35:09.497Z,25.93
2022-07-31T07:37:22.716Z,25.70
2022-07-31T07:39:22.295Z,25.55
2022-07-31T07:41:25.002Z,25.46
2022-07-31T07:43:23.268Z,25.21
2022-07-31T07:45:21.940Z,25.47
2022-07-31T07:47:20.400Z,25.51
2022-07-31T07:49:18.708Z,26.43
2022-07-31T07:51:24.825Z,26.65
2022-07-31T07:53:30.377Z,26.58
2022-07-31T07:55:40.668Z,26.42
2022-07-31T07:57:58.626Z,26.27
2022-07-31T08:00:16.330Z,26.00
2022-07-31T08:02:14.665Z,25.70
2022-07-31T08:04:13.088Z,25.11
2022-07-31T08:06:11.472Z,25.47
2022-07-31T08:08:10.007Z,25.52
2022-07-31T08:10:21.473Z,25.74
2022-07-31T08:12:32.962Z,25.56
2022-07-31T08:14:38.814Z,24.99
2022-07-31T08:16:56.521Z,25.26
2022-07-31T08:18:55.938Z,26.71
2022-07-31T08:20:54.374Z,27.43
2022-07-31T08:22:53.363Z,28.39
2022-07-31T08:24:52.415Z,27.66
2022-07-31T08:27:08.758Z,28.25
2022-07-31T08:29:09.060Z,29.41
2022-07-31T08:31:12.973Z,28.09
2022-07-31T08:33:23.663Z,27.19
2022-07-31T08:35:26.526Z,27.00
2022-07-31T08:37:57.552Z,26.95
2022-07-31T08:39:43.350Z,26.83
2022-07-31T08:41:41.676Z,26.74
2022-07-31T08:44:02.806Z,27.58
2022-07-31T08:46:03.372Z,27.82
2022-07-31T08:48:09.450Z,28.38
2022-07-31T08:50:17.103Z,28.06
2022-07-31T08:52:19.794Z,28.70
2022-07-31T08:54:29.019Z,29.32
2022-07-31T08:56:29.162Z,29.81
2022-07-31T08:58:27.682Z,29.97
2022-07-31T09:00:26.317Z,29.14
2022-07-31T09:02:24.481Z,28.74
2022-07-31T09:04:43.321Z,28.25
2022-07-31T09:06:41.749Z,27.68
2022-07-31T09:08:40.207Z,27.06
2022-07-31T09:10:39.589Z,26.87
2022-07-31T09:12:37.884Z,26.39
2022-07-31T09:14:38.288Z,26.56
2022-07-31T09:16:46.709Z,26.07
2022-07-31T09:18:55.544Z,25.66
2022-07-31T09:21:00.021Z,25.40
2022-07-31T09:23:07.472Z,25.06
2022-07-31T09:25:12.159Z,25.28
2022-07-31T09:27:11.474Z,25.55
2022-07-31T09:29:12.713Z,25.89
2022-07-31T09:31:14.021Z,25.96
2022-07-31T09:33:31.744Z,25.63
2022-07-31T09:35:48.148Z,25.75
2022-07-31T09:37:49.715Z,25.74
2022-07-31T09:40:08.584Z,26.53
2022-07-31T09:42:48.398Z,27.55
2022-07-31T09:44:55.422Z,28.53
2022-07-31T09:46:54.614Z,28.17
2022-07-31T09:48:56.678Z,27.76
2022-07-31T09:51:01.147Z,27.08
2022-07-31T09:53:03.793Z,26.04
2022-07-31T09:55:15.829Z,25.51
2022-07-31T09:57:17.118Z,25.08
2022-07-31T09:59:19.028Z,24.82
2022-07-31T10:01:18.149Z,24.70
2022-07-31T10:03:18.952Z,24.90
2022-07-31T10:05:19.332Z,25.03
2022-07-31T10:07:24.467Z,25.04
2022-07-31T10:09:57.644Z,26.08
2022-07-31T10:12:18.222Z,27.19
2022-07-31T10:14:22.511Z,28.76
2022-07-31T10:16:22.541Z,29.57
2022-07-31T10:18:35.687Z,30.50
2022-07-31T10:21:08.018Z,30.10
2022-07-31T10:23:25.540Z,30.68
2022-07-31T10:25:29.197Z,30.90
2022-07-31T10:27:29.587Z,30.95
2022-07-31T10:29:39.406Z,30.96
2022-07-31T10:31:38.425Z,30.78
2022-07-31T10:33:45.218Z,30.20
2022-07-31T10:36:07.122Z,31.37
2022-07-31T10:38:29.177Z,31.90
2022-07-31T10:41:00.138Z,31.61
2022-07-31T10:43:13.030Z,31.86
2022-07-31T10:45:16.022Z,32.37
2022-07-31T10:47:21.057Z,31.75
2022-07-31T10:49:40.666Z,31.50
2022-07-31T10:51:57.421Z,30.55
2022-07-31T10:54:15.624Z,31.41
2022-07-31T10:56:47.748Z,31.18
2022-07-31T10:58:58.808Z,31.40
2022-07-31T11:01:17.564Z,30.90
2022-07-31T11:03:55.225Z,29.80
2022-07-31T11:06:01.869Z,29.24
2022-07-31T11:08:19.868Z,29.02
2022-07-31T11:10:36.424Z,28.61
2022-07-31T11:12:36.425Z,28.50
2022-07-31T11:14:52.531Z,28.46
2022-07-31T11:17:05.752Z,27.76
2022-07-31T11:19:27.158Z,27.35
2022-07-31T11:21:40.260Z,27.58
2022-07-31T11:23:38.970Z,27.24
2022-07-31T11:25:39.044Z,27.42
2022-07-31T11:27:38.783Z,27.45
2022-07-31T11:30:01.428Z,27.39
2022-07-31T11:31:57.472Z,27.51
2022-07-31T11:33:55.937Z,27.68
2022-07-31T11:35:55.643Z,27.74
2022-07-31T11:37:57.966Z,27.48
2022-07-31T11:39:57.619Z,27.41
2022-07-31T11:41:56.101Z,27.79
2022-07-31T11:43:57.615Z,27.47
2022-07-31T11:45:56.264Z,27.46
2022-07-31T11:47:56.103Z,27.63
2022-07-31T11:50:11.619Z,27.67
2022-07-31T11:52:31.204Z,27.53
2022-07-31T11:54:30.529Z,27.27
2022-07-31T11:56:29.501Z,27.22
2022-07-31T11:58:29.641Z,27.31
2022-07-31T12:00:30.344Z,27.22
2022-07-31T12:02:28.842Z,27.11
2022-07-31T12:04:27.283Z,27.44
2022-07-31T12:06:25.508Z,27.58
2022-07-31T12:08:25.730Z,27.67
2022-07-31T12:10:24.339Z,27.60
2022-07-31T12:12:22.709Z,27.55
2022-07-31T12:14:30.373Z,27.66
2022-07-31T12:16:41.460Z,27.68
2022-07-31T12:18:48.809Z,27.62
2022-07-31T12:20:53.745Z,27.59
2022-07-31T12:22:59.365Z,27.61
2022-07-31T12:25:03.139Z,27.62
2022-07-31T12:27:08.086Z,27.55
2022-07-31T12:29:08.462Z,27.53
2022-07-31T12:31:06.878Z,27.63
2022-07-31T12:33:10.783Z,27.71
2022-07-31T12:35:12.455Z,27.59
2022-07-31T12:37:12.248Z,27.60
2022-07-31T12:39:12.928Z,27.73
2022-07-31T12:41:11.416Z,27.76
2022-07-31T12:43:09.733Z,27.53
2022-07-31T12:45:19.473Z,27.62
2022-07-31T12:47:21.946Z,27.42
2022-07-31T12:49:26.054Z,27.40
2022-07-31T12:51:45.492Z,27.36
2022-07-31T12:53:42.833Z,27.36
2022-07-31T12:55:41.058Z,27.13
2022-07-31T12:57:41.749Z,27.21
2022-07-31T12:59:49.904Z,27.08
2022-07-31T13:01:48.229Z,27.01
2022-07-31T13:03:47.271Z,27.06
2022-07-31T13:05:51.677Z,26.97
2022-07-31T13:07:52.006Z,27.04
2022-07-31T13:10:20.334Z,26.96
2022-07-31T13:12:09.794Z,26.81
2022-07-31T13:14:08.182Z,26.92
2022-07-31T13:16:07.552Z,27.09
2022-07-31T13:18:06.148Z,27.01
2022-07-31T13:20:04.937Z,27.20
2022-07-31T13:22:05.004Z,27.00
2022-07-31T13:24:05.632Z,27.01
2022-07-31T13:26:03.793Z,26.81
2022-07-31T13:28:02.313Z,26.66
2022-07-31T13:30:00.993Z,26.55
2022-07-31T13:32:02.371Z,26.62
2022-07-31T13:34:03.236Z,26.65
2022-07-31T13:36:01.498Z,26.67
2022-07-31T13:38:01.193Z,26.58
2022-07-31T13:39:59.571Z,26.73
2022-07-31T13:41:56.828Z,26.87
2022-07-31T13:44:00.088Z,26.99
2022-07-31T13:45:59.079Z,26.86
2022-07-31T13:48:00.438Z,26.96
2022-07-31T13:49:59.978Z,27.02
2022-07-31T13:51:58.292Z,26.79
2022-07-31T13:53:58.185Z,26.59
2022-07-31T13:55:56.753Z,26.57
2022-07-31T13:57:57.138Z,26.60
2022-07-31T13:59:59.715Z,26.39
2022-07-31T14:02:02.812Z,26.33
2022-07-31T14:04:15.608Z,26.48
2022-07-31T14:06:21.274Z,26.49
2022-07-31T14:08:30.604Z,26.45
2022-07-31T14:10:33.562Z,26.47
2022-07-31T14:12:33.956Z,26.52
2022-07-31T14:14:32.213Z,26.58
2022-07-31T14:16:30.588Z,26.53
2022-07-31T14:18:31.636Z,26.37
2022-07-31T14:20:32.643Z,26.42
2022-07-31T14:22:31.318Z,26.24
2022-07-31T14:24:30.206Z,26.17
2022-07-31T14:26:30.054Z,26.29
2022-07-31T14:28:28.855Z,26.42
2022-07-31T14:30:27.296Z,26.44
2022-07-31T14:32:25.676Z,26.52
2022-07-31T14:34:24.054Z,26.43
2022-07-31T14:36:33.909Z,26.35
2022-07-31T14:38:32.244Z,26.38
2022-07-31T14:40:31.011Z,26.29
2022-07-31T14:42:30.893Z,26.17
2022-07-31T14:44:29.331Z,26.21
2022-07-31T14:46:27.522Z,26.22
2022-07-31T14:48:27.495Z,26.23
2022-07-31T14:50:25.874Z,26.09
2022-07-31T14:52:24.292Z,26.02
2022-07-31T14:54:24.974Z,25.85
2022-07-31T14:56:39.683Z,25.85
2022-07-31T14:58:58.463Z,25.82
2022-07-31T15:00:57.183Z,25.79
2022-07-31T15:02:55.482Z,25.72
2022-07-31T15:04:54.098Z,25.75
2022-07-31T15:07:02.992Z,25.75
2022-07-31T15:09:10.709Z,25.70
2022-07-31T15:11:09.149Z,25.73
2022-07-31T15:13:07.378Z,25.71
2022-07-31T15:15:08.719Z,25.68
2022-07-31T15:17:07.328Z,25.65
2022-07-31T15:19:05.899Z,25.58
2022-07-31T15:21:04.341Z,25.48
2022-07-31T15:23:02.658Z,25.43
2022-07-31T15:25:00.947Z,25.43
2022-07-31T15:26:59.311Z,25.40
2022-07-31T15:28:57.696Z,25.38
2022-07-31T15:31:01.044Z,25.29
2022-07-31T15:32:59.943Z,25.32
2022-07-31T15:34:58.089Z,25.30
2022-07-31T15:36:58.354Z,25.26
2022-07-31T15:38:56.662Z,25.23
2022-07-31T15:40:55.029Z,25.26
2022-07-31T15:42:53.440Z,25.17
2022-07-31T15:44:51.694Z,25.15
2022-07-31T15:46:51.358Z,25.12
2022-07-31T15:48:50.991Z,25.06
2022-07-31T15:50:49.271Z,25.21
2022-07-31T15:52:48.171Z,25.31
2022-07-31T15:54:46.531Z,25.41
2022-07-31T15:56:46.885Z,25.48
2022-07-31T15:58:45.182Z,25.37
2022-07-31T16:00:43.615Z,25.23
2022-07-31T16:02:45.386Z,25.25
2022-07-31T16:04:52.995Z,25.36
2022-07-31T16:06:52.269Z,25.36
2022-07-31T16:08:51.177Z,25.25
2022-07-31T16:10:54.275Z,25.18
2022-07-31T16:12:52.741Z,25.18
2022-07-31T16:14:51.255Z,25.08
2022-07-31T16:16:52.706Z,25.03
2022-07-31T16:18:56.413Z,25.10
2022-07-31T16:20:54.709Z,25.10
2022-07-31T16:22:56.642Z,25.07
2022-07-31T16:24:55.015Z,24.93
2022-07-31T16:26:53.274Z,24.91
2022-07-31T16:28:54.174Z,24.83
2022-07-31T16:30:52.563Z,24.77
2022-07-31T16:32:51.506Z,24.75
2022-07-31T16:34:54.080Z,24.76
2022-07-31T16:36:54.300Z,24.69
2022-07-31T16:39:18.638Z,24.61
2022-07-31T16:41:11.376Z,24.50
2022-07-31T16:43:49.404Z,24.47
2022-07-31T16:45:28.163Z,24.50
2022-07-31T16:47:51.175Z,24.44
2022-07-31T16:49:45.318Z,24.39
2022-07-31T16:51:46.235Z,24.35
2022-07-31T16:54:13.697Z,24.30
2022-07-31T16:56:03.092Z,24.28
2022-07-31T16:58:01.600Z,24.25
2022-07-31T17:00:00.252Z,24.21
2022-07-31T17:02:01.049Z,24.20
2022-07-31T17:04:03.495Z,24.17
2022-07-31T17:06:03.687Z,24.14
2022-07-31T17:08:03.574Z,24.10
2022-07-31T17:10:01.896Z,24.10
2022-07-31T17:12:00.215Z,24.04
2022-07-31T17:13:58.509Z,24.00
2022-07-31T17:15:56.799Z,23.99
2022-07-31T17:17:55.175Z,23.91
2022-07-31T17:19:55.326Z,23.78
2022-07-31T17:21:53.950Z,23.82
2022-07-31T17:23:54.633Z,23.74
2022-07-31T17:25:54.204Z,23.69
2022-07-31T17:27:53.526Z,23.65
2022-07-31T17:29:52.073Z,23.61
2022-07-31T17:31:50.390Z,23.60
2022-07-31T17:33:49.562Z,23.50
2022-07-31T17:35:58.465Z,23.46
2022-07-31T17:37:56.893Z,23.46
2022-07-31T17:39:57.989Z,23.41
2022-07-31T17:41:56.450Z,23.42
2022-07-31T17:43:55.135Z,23.38
2022-07-31T17:46:05.587Z,23.26
2022-07-31T17:48:07.672Z,23.21
2022-07-31T17:50:06.668Z,23.18
2022-07-31T17:52:05.537Z,23.20
2022-07-31T17:54:03.924Z,23.20
2022-07-31T17:56:03.812Z,23.12
2022-07-31T17:58:02.265Z,23.12
2022-07-31T18:00:01.280Z,22.98
2022-07-31T18:02:00.873Z,22.97
2022-07-31T18:03:59.198Z,22.97
2022-07-31T18:05:57.699Z,22.83
2022-07-31T18:07:56.119Z,22.81
2022-07-31T18:09:54.287Z,22.78
2022-07-31T18:11:54.833Z,22.74
2022-07-31T18:13:55.458Z,22.65
2022-07-31T18:16:00.081Z,22.55
2022-07-31T18:17:58.353Z,22.46
2022-07-31T18:19:56.612Z,22.37
2022-07-31T18:21:55.950Z,22.32
2022-07-31T18:23:54.310Z,22.34
2022-07-31T18:25:52.705Z,22.37
2022-07-31T18:27:54.245Z,22.29
2022-07-31T18:29:56.040Z,22.31
2022-07-31T18:31:54.728Z,22.29
2022-07-31T18:33:53.589Z,22.37
2022-07-31T18:35:51.880Z,22.47
2022-07-31T18:37:50.277Z,22.49
2022-07-31T18:39:49.288Z,22.40
2022-07-31T18:41:49.085Z,22.38
2022-07-31T18:43:49.087Z,22.22
2022-07-31T18:45:47.451Z,22.10
2022-07-31T18:47:45.768Z,21.95
2022-07-31T18:50:59.639Z,21.92
2022-07-31T18:52:03.295Z,21.88
2022-07-31T18:54:03.703Z,21.76
2022-07-31T18:56:02.210Z,21.72
2022-07-31T18:58:00.904Z,21.78
2022-07-31T19:00:05.263Z,21.76
2022-07-31T19:02:04.482Z,21.69
2022-07-31T19:04:04.582Z,21.67
2022-07-31T19:06:02.754Z,21.71
2022-07-31T19:08:01.131Z,21.78
2022-07-31T19:09:59.461Z,21.73
2022-07-31T19:13:57.199Z,21.67
2022-07-31T19:15:57.055Z,21.57
2022-07-31T19:17:58.752Z,21.66
2022-07-31T19:20:02.086Z,21.71
2022-07-31T19:22:00.551Z,21.76
2022-07-31T19:23:59.723Z,21.65
2022-07-31T19:26:03.963Z,21.56
2022-07-31T19:28:03.314Z,21.69
2022-07-31T19:30:01.639Z,21.77
2022-07-31T19:32:01.801Z,21.74
2022-07-31T19:34:00.279Z,21.66
2022-07-31T19:36:01.933Z,21.70
2022-07-31T19:38:02.659Z,21.70
2022-07-31T19:40:01.019Z,21.58
2022-07-31T19:42:11.376Z,21.51
2022-07-31T19:44:17.447Z,21.49
2022-07-31T19:46:15.758Z,21.47
2022-07-31T19:48:15.378Z,21.48
2022-07-31T19:50:13.907Z,21.40
2022-07-31T19:52:12.750Z,21.48
2022-07-31T19:54:11.263Z,21.54
2022-07-31T19:56:10.437Z,21.45
2022-07-31T19:58:08.748Z,21.46
2022-07-31T20:00:09.678Z,21.43
2022-07-31T20:02:08.269Z,21.54
2022-07-31T20:04:10.218Z,21.53
2022-07-31T20:06:08.499Z,21.52
2022-07-31T20:08:06.713Z,21.47
2022-07-31T20:10:10.065Z,21.41
2022-07-31T20:12:09.455Z,21.43
2022-07-31T20:14:07.810Z,21.35
2022-07-31T20:16:06.704Z,21.34
2022-07-31T20:18:05.266Z,21.39
2022-07-31T20:20:15.772Z,21.27
2022-07-31T20:22:14.364Z,21.20
2022-07-31T20:24:12.728Z,21.28
2022-07-31T20:26:12.780Z,21.21
2022-07-31T20:28:11.115Z,21.18
2022-07-31T20:30:10.984Z,21.23
2022-07-31T20:32:12.701Z,21.05
2022-07-31T20:34:10.861Z,20.95
2022-07-31T20:36:11.080Z,20.98
2022-07-31T20:38:15.756Z,20.98
2022-07-31T20:40:15.161Z,20.88
2022-07-31T20:42:13.378Z,20.89
2022-07-31T20:44:11.677Z,20.75
2022-07-31T20:46:11.903Z,20.59
2022-07-31T20:48:10.050Z,20.49
2022-07-31T20:50:10.465Z,20.34
2022-07-31T20:52:10.159Z,20.41
2022-07-31T20:54:08.744Z,20.45
2022-07-31T20:56:07.576Z,20.44
2022-07-31T20:58:05.776Z,20.45
2022-07-31T21:00:08.317Z,20.25
2022-07-31T21:02:06.849Z,20.12
2022-07-31T21:04:06.352Z,20.08
2022-07-31T21:06:04.997Z,20.13
2022-07-31T21:08:04.924Z,20.13
2022-07-31T21:10:05.098Z,20.11
2022-07-31T21:12:03.818Z,19.93
2022-07-31T21:14:03.034Z,19.95
2022-07-31T21:16:01.402Z,19.89
2022-07-31T21:17:59.536Z,19.87
2022-07-31T21:19:57.843Z,19.86
2022-07-31T21:21:56.071Z,19.82
2022-07-31T21:24:00.692Z,19.78
2022-07-31T21:26:00.096Z,19.79
2022-07-31T21:27:59.309Z,19.83
2022-07-31T21:29:58.556Z,19.89
2022-07-31T21:31:57.584Z,19.81
2022-07-31T21:33:56.540Z,19.75
2022-07-31T21:35:55.761Z,19.81
2022-07-31T21:37:54.694Z,19.83
2022-07-31T21:39:57.118Z,19.93
2022-07-31T21:41:55.902Z,19.89
2022-07-31T21:43:58.527Z,19.89
2022-07-31T21:46:01.834Z,19.93
2022-07-31T21:48:01.649Z,19.85
2022-07-31T21:50:01.799Z,19.77
2022-07-31T21:52:00.746Z,19.71
2022-07-31T21:53:58.990Z,19.61
2022-07-31T21:56:01.869Z,19.56
2022-07-31T21:58:00.258Z,19.50
2022-07-31T21:59:58.750Z,19.51
2022-07-31T22:01:57.324Z,19.49
2022-07-31T22:03:59.127Z,19.43
2022-07-31T22:06:14.571Z,19.36
2022-07-31T22:08:13.866Z,19.27
2022-07-31T22:10:13.005Z,19.16
2022-07-31T22:12:12.832Z,19.12
2022-07-31T22:14:11.066Z,19.01
2022-07-31T22:16:09.247Z,18.95
2022-07-31T22:18:08.181Z,18.89
2022-07-31T22:20:08.534Z,18.94
2022-07-31T22:22:08.115Z,18.85
2022-07-31T22:24:07.571Z,18.78
2022-07-31T22:26:06.414Z,18.80
2022-07-31T22:28:06.158Z,18.75
2022-07-31T22:30:05.401Z,18.75
2022-07-31T22:32:04.096Z,18.70
2022-07-31T22:34:02.656Z,18.65
2022-07-31T22:36:02.799Z,18.54
2022-07-31T22:38:01.112Z,18.53
2022-07-31T22:40:00.338Z,18.49
2022-07-31T22:42:00.338Z,18.46
2022-07-31T22:44:12.958Z,18.38
2022-07-31T22:46:13.455Z,18.33
2022-07-31T22:48:12.913Z,18.40
2022-07-31T22:50:13.430Z,18.40
2022-07-31T22:52:12.410Z,18.45
2022-07-31T22:54:10.597Z,18.49
2022-07-31T22:56:09.003Z,18.59
2022-07-31T22:58:10.451Z,18.64
2022-07-31T23:00:13.291Z,18.65
2022-07-31T23:02:14.689Z,18.70
2022-07-31T23:04:12.947Z,18.70
2022-07-31T23:06:31.271Z,18.76
2022-07-31T23:08:29.514Z,18.89
2022-07-31T23:10:27.940Z,18.94
2022-07-31T23:12:28.508Z,18.90
2022-07-31T23:14:29.993Z,18.88
2022-07-31T23:16:29.799Z,18.94
2022-07-31T23:18:28.043Z,19.01
2022-07-31T23:20:26.495Z,19.05
2022-07-31T23:22:30.765Z,19.19
2022-07-31T23:24:32.852Z,19.26
2022-07-31T23:26:31.099Z,19.36
2022-07-31T23:28:29.422Z,19.40
2022-07-31T23:30:28.274Z,19.45
2022-07-31T23:32:28.411Z,19.45
2022-07-31T23:34:26.596Z,19.48
2022-07-31T23:36:27.707Z,19.40
2022-07-31T23:38:25.849Z,19.34
2022-07-31T23:40:24.279Z,19.37
2022-07-31T23:42:39.800Z,19.23
2022-07-31T23:44:40.038Z,19.07
2022-07-31T23:46:40.366Z,19.03
2022-07-31T23:48:40.368Z,19.04
2022-07-31T23:50:38.648Z,19.04
2022-07-31T23:52:36.873Z,19.08
2022-07-31T23:54:35.370Z,19.01
2022-07-31T23:56:34.019Z,18.94
2022-07-31T23:58:33.254Z,18.98
